Violet, Texas
Current Conditions -  °F | °C
As of 11:35 AM on Saturday 20 Dec 2014 (Local Time) from KRBO Reporting Station
Overcast Overcast  
Wind Chill: 54°   Ceiling: 900
Heat Index: 54°   Visibility: 10mi
Dew Point: 51°   Wind: 9mph
Humidity: 89%   Direction: 340°NNW
Pressure: 30.22"   Gusts: NA
Location:  27.7757°N, 97.7554°W
Report Text: KRBO 201735Z AUTO 34008KT 10SM OVC009 12/11 A3022 RMK AO2 T01240106
Loading
Personal Weather Stations






























Interactive Weather Map New forecast layout! Learn more

10-Day Weather Forecast

Advertisements
Track Severe Weather on mobile